sensor_id;sensor_type;location;lat;lon;timestamp;pressure;altitude;pressure_sealevel;temperature;humidity
31337;BME280;22846;42.654;23.314;2023-05-23T00:02:21;94400.91;;;24.40;54.52
31337;BME280;22846;42.654;23.314;2023-05-23T00:04:47;94399.38;;;24.39;54.91
31337;BME280;22846;42.654;23.314;2023-05-23T00:07:12;94401.78;;;24.37;54.61
31337;BME280;22846;42.654;23.314;2023-05-23T00:09:37;94400.13;;;24.40;54.95
31337;BME280;22846;42.654;23.314;2023-05-23T00:12:03;94390.13;;;24.37;54.96
31337;BME280;22846;42.654;23.314;2023-05-23T00:14:28;94389.66;;;24.38;54.48
31337;BME280;22846;42.654;23.314;2023-05-23T00:16:58;94387.38;;;24.37;54.87
31337;BME280;22846;42.654;23.314;2023-05-23T00:19:24;94392.41;;;24.38;54.58
31337;BME280;22846;42.654;23.314;2023-05-23T00:21:50;94385.84;;;24.36;54.89
31337;BME280;22846;42.654;23.314;2023-05-23T00:24:17;94397.09;;;24.38;54.98
31337;BME280;22846;42.654;23.314;2023-05-23T00:26:47;94392.84;;;24.37;54.48
31337;BME280;22846;42.654;23.314;2023-05-23T00:29:14;94389.00;;;24.34;55.03
31337;BME280;22846;42.654;23.314;2023-05-23T00:31:43;94387.38;;;24.37;54.63
31337;BME280;22846;42.654;23.314;2023-05-23T00:34:12;94391.31;;;24.36;54.46
31337;BME280;22846;42.654;23.314;2023-05-23T00:36:38;94391.31;;;24.36;55.12
31337;BME280;22846;42.654;23.314;2023-05-23T00:39:06;94391.00;;;24.34;54.62
31337;BME280;22846;42.654;23.314;2023-05-23T00:41:32;94397.19;;;24.34;54.57
31337;BME280;22846;42.654;23.314;2023-05-23T00:43:58;94391.00;;;24.34;54.58
31337;BME280;22846;42.654;23.314;2023-05-23T00:46:25;94391.00;;;24.34;54.84
31337;BME280;22846;42.654;23.314;2023-05-23T00:48:51;94391.00;;;24.34;54.58
31337;BME280;22846;42.654;23.314;2023-05-23T00:51:17;94384.00;;;24.33;54.53
31337;BME280;22846;42.654;23.314;2023-05-23T00:53:42;94386.72;;;24.33;54.75
31337;BME280;22846;42.654;23.314;2023-05-23T00:56:08;94389.47;;;24.33;54.67
31337;BME280;22846;42.654;23.314;2023-05-23T00:58:34;94390.22;;;24.33;55.01
31337;BME280;22846;42.654;23.314;2023-05-23T01:00:59;94385.97;;;24.32;55.02
31337;BME280;22846;42.654;23.314;2023-05-23T01:03:25;94388.72;;;24.32;55.07
31337;BME280;22846;42.654;23.314;2023-05-23T01:05:54;94388.72;;;24.32;54.79
31337;BME280;22846;42.654;23.314;2023-05-23T01:08:20;94382.47;;;24.32;54.70
31337;BME280;22846;42.654;23.314;2023-05-23T01:10:46;94395.38;;;24.31;54.72
31337;BME280;22846;42.654;23.314;2023-05-23T01:13:28;94399.31;;;24.30;54.97
31337;BME280;22846;42.654;23.314;2023-05-23T01:16:06;94395.06;;;24.29;54.60
31337;BME280;22846;42.654;23.314;2023-05-23T01:18:52;94393.84;;;24.30;54.87
31337;BME280;22846;42.654;23.314;2023-05-23T01:21:23;94397.31;;;24.31;55.13
31337;BME280;22846;42.654;23.314;2023-05-23T01:24:02;94395.06;;;24.29;54.68
31337;BME280;22846;42.654;23.314;2023-05-23T01:29:37;94388.19;;;24.25;55.31
31337;BME280;22846;42.654;23.314;2023-05-23T01:32:05;94388.81;;;24.29;55.05
31337;BME280;22846;42.654;23.314;2023-05-23T01:34:33;94404.44;;;24.28;55.13
31337;BME280;22846;42.654;23.314;2023-05-23T01:36:59;94395.91;;;24.26;55.11
31337;BME280;22846;42.654;23.314;2023-05-23T01:39:24;94392.78;;;24.28;55.19
31337;BME280;22846;42.654;23.314;2023-05-23T01:41:50;94388.81;;;24.29;55.43
31337;BME280;22846;42.654;23.314;2023-05-23T01:44:17;94383.78;;;24.27;55.32
31337;BME280;22846;42.654;23.314;2023-05-23T01:46:43;94392.00;;;24.27;55.48
31337;BME280;22846;42.654;23.314;2023-05-23T01:49:11;94386.53;;;24.27;55.78
31337;BME280;22846;42.654;23.314;2023-05-23T01:51:38;94378.00;;;24.25;55.53
31337;BME280;22846;42.654;23.314;2023-05-23T01:54:04;94378.00;;;24.25;56.03
31337;BME280;22846;42.654;23.314;2023-05-23T01:56:29;94375.28;;;24.25;56.03
31337;BME280;22846;42.654;23.314;2023-05-23T01:58:55;94379.53;;;24.26;55.69
31337;BME280;22846;42.654;23.314;2023-05-23T02:01:20;94379.53;;;24.26;55.75
31337;BME280;22846;42.654;23.314;2023-05-23T02:03:46;94376.81;;;24.26;56.18
31337;BME280;22846;42.654;23.314;2023-05-23T02:06:11;94372.25;;;24.23;55.81
31337;BME280;22846;42.654;23.314;2023-05-23T02:08:37;94378.00;;;24.25;56.05
31337;BME280;22846;42.654;23.314;2023-05-23T02:11:02;94378.00;;;24.25;56.11
31337;BME280;22846;42.654;23.314;2023-05-23T02:13:28;94385.44;;;24.25;56.28
31337;BME280;22846;42.654;23.314;2023-05-23T02:15:53;94384.66;;;24.24;56.09
31337;BME280;22846;42.654;23.314;2023-05-23T02:18:19;94382.72;;;24.25;56.20
31337;BME280;22846;42.654;23.314;2023-05-23T02:20:45;94381.19;;;24.24;56.11
31337;BME280;22846;42.654;23.314;2023-05-23T02:23:11;94383.91;;;24.24;56.10
31337;BME280;22846;42.654;23.314;2023-05-23T02:25:36;94379.66;;;24.23;55.83
31337;BME280;22846;42.654;23.314;2023-05-23T02:28:01;94381.19;;;24.24;56.32
31337;BME280;22846;42.654;23.314;2023-05-23T02:30:27;94380.44;;;24.23;56.34
31337;BME280;22846;42.654;23.314;2023-05-23T02:32:52;94373.88;;;24.21;56.34
31337;BME280;22846;42.654;23.314;2023-05-23T02:35:19;94380.84;;;24.22;55.86
31337;BME280;22846;42.654;23.314;2023-05-23T02:37:45;94382.84;;;24.21;56.28
31337;BME280;22846;42.654;23.314;2023-05-23T02:40:10;94370.84;;;24.19;56.02
31337;BME280;22846;42.654;23.314;2023-05-23T02:42:36;94369.19;;;24.21;55.93
31337;BME280;22846;42.654;23.314;2023-05-23T02:45:01;94366.47;;;24.21;56.01
31337;BME280;22846;42.654;23.314;2023-05-23T02:47:27;94362.94;;;24.21;56.20
31337;BME280;22846;42.654;23.314;2023-05-23T02:49:52;94369.59;;;24.20;56.33
31337;BME280;22846;42.654;23.314;2023-05-23T02:52:17;94368.41;;;24.21;56.40
31337;BME280;22846;42.654;23.314;2023-05-23T02:54:43;94367.66;;;24.20;56.15
31337;BME280;22846;42.654;23.314;2023-05-23T02:57:08;94368.84;;;24.19;56.10
31337;BME280;22846;42.654;23.314;2023-05-23T02:59:34;94375.06;;;24.20;56.02
31337;BME280;22846;42.654;23.314;2023-05-23T03:02:00;94368.09;;;24.19;56.26
31337;BME280;22846;42.654;23.314;2023-05-23T03:04:26;94369.59;;;24.20;56.43
31337;BME280;22846;42.654;23.314;2023-05-23T03:06:51;94368.84;;;24.19;56.19
31337;BME280;22846;42.654;23.314;2023-05-23T03:09:18;94373.56;;;24.19;56.33
31337;BME280;22846;42.654;23.314;2023-05-23T03:11:44;94379.03;;;24.19;56.00
31337;BME280;22846;42.654;23.314;2023-05-23T03:14:09;94372.47;;;24.16;56.26
31337;BME280;22846;42.654;23.314;2023-05-23T03:16:34;94365.81;;;24.17;56.27
31337;BME280;22846;42.654;23.314;2023-05-23T03:19:00;94372.78;;;24.18;55.86
31337;BME280;22846;42.654;23.314;2023-05-23T03:21:25;94374.31;;;24.19;56.11
31337;BME280;22846;42.654;23.314;2023-05-23T03:23:51;94374.00;;;24.17;56.31
31337;BME280;22846;42.654;23.314;2023-05-23T03:26:16;94371.72;;;24.16;56.21
31337;BME280;22846;42.654;23.314;2023-05-23T03:28:42;94376.41;;;24.15;56.32
31337;BME280;22846;42.654;23.314;2023-05-23T03:31:08;94383.72;;;24.18;56.39
31337;BME280;22846;42.654;23.314;2023-05-23T03:33:34;94381.44;;;24.17;56.14
31337;BME280;22846;42.654;23.314;2023-05-23T03:35:59;94384.91;;;24.17;56.19
31337;BME280;22846;42.654;23.314;2023-05-23T03:38:25;94385.69;;;24.18;55.97
31337;BME280;22846;42.654;23.314;2023-05-23T03:40:51;94391.16;;;24.18;56.07
31337;BME280;22846;42.654;23.314;2023-05-23T03:43:16;94394.63;;;24.18;56.08
31337;BME280;22846;42.654;23.314;2023-05-23T03:45:42;94391.56;;;24.16;55.96
31337;BME280;22846;42.654;23.314;2023-05-23T03:48:07;94395.09;;;24.17;56.27
31337;BME280;22846;42.654;23.314;2023-05-23T03:50:33;94394.63;;;24.18;56.18
31337;BME280;22846;42.654;23.314;2023-05-23T03:52:58;94400.09;;;24.18;56.07
31337;BME280;22846;42.654;23.314;2023-05-23T03:55:24;94396.28;;;24.16;56.32
31337;BME280;22846;42.654;23.314;2023-05-23T03:57:50;94404.81;;;24.18;56.29
31337;BME280;22846;42.654;23.314;2023-05-23T04:00:18;94408.28;;;24.18;56.24
31337;BME280;22846;42.654;23.314;2023-05-23T04:02:44;94410.28;;;24.18;56.18
31337;BME280;22846;42.654;23.314;2023-05-23T04:05:11;94404.81;;;24.18;56.31
31337;BME280;22846;42.654;23.314;2023-05-23T04:07:37;94402.81;;;24.18;56.29
31337;BME280;22846;42.654;23.314;2023-05-23T04:10:03;94398.56;;;24.17;55.97
31337;BME280;22846;42.654;23.314;2023-05-23T04:12:29;94391.56;;;24.16;55.99
31337;BME280;22846;42.654;23.314;2023-05-23T04:14:55;94404.03;;;24.17;56.23
31337;BME280;22846;42.654;23.314;2023-05-23T04:17:22;94392.34;;;24.17;56.17
31337;BME280;22846;42.654;23.314;2023-05-23T04:19:48;94395.09;;;24.17;56.00
31337;BME280;22846;42.654;23.314;2023-05-23T04:22:13;94397.03;;;24.16;56.43
31337;BME280;22846;42.654;23.314;2023-05-23T04:24:39;94398.56;;;24.17;56.34
31337;BME280;22846;42.654;23.314;2023-05-23T04:27:05;94395.09;;;24.17;55.86
31337;BME280;22846;42.654;23.314;2023-05-23T04:29:32;94395.97;;;24.14;56.26
31337;BME280;22846;42.654;23.314;2023-05-23T04:31:58;94397.03;;;24.16;56.27
31337;BME280;22846;42.654;23.314;2023-05-23T04:34:23;94397.03;;;24.16;56.45
31337;BME280;22846;42.654;23.314;2023-05-23T04:36:49;94402.50;;;24.16;56.26
31337;BME280;22846;42.654;23.314;2023-05-23T04:39:14;94404.47;;;24.16;56.02
31337;BME280;22846;42.654;23.314;2023-05-23T04:41:41;94409.94;;;24.16;56.25
31337;BME280;22846;42.654;23.314;2023-05-23T04:44:08;94397.03;;;24.16;56.04
31337;BME280;22846;42.654;23.314;2023-05-23T04:46:34;94403.28;;;24.17;56.24
31337;BME280;22846;42.654;23.314;2023-05-23T04:49:01;94407.22;;;24.16;56.34
31337;BME280;22846;42.654;23.314;2023-05-23T04:51:26;94407.97;;;24.16;56.22
31337;BME280;22846;42.654;23.314;2023-05-23T04:53:52;94407.97;;;24.16;55.87
31337;BME280;22846;42.654;23.314;2023-05-23T04:56:17;94421.59;;;24.16;56.00
31337;BME280;22846;42.654;23.314;2023-05-23T04:58:47;94424.34;;;24.16;56.01
31337;BME280;22846;42.654;23.314;2023-05-23T05:01:13;94424.34;;;24.16;56.04
31337;BME280;22846;42.654;23.314;2023-05-23T05:03:39;94416.16;;;24.16;55.82
31337;BME280;22846;42.654;23.314;2023-05-23T05:06:04;94413.41;;;24.16;55.93
31337;BME280;22846;42.654;23.314;2023-05-23T05:08:31;94420.06;;;24.15;55.87
31337;BME280;22846;42.654;23.314;2023-05-23T05:10:56;94420.53;;;24.14;56.14
31337;BME280;22846;42.654;23.314;2023-05-23T05:13:22;94423.59;;;24.16;55.94
31337;BME280;22846;42.654;23.314;2023-05-23T05:15:47;94428.28;;;24.15;55.86
31337;BME280;22846;42.654;23.314;2023-05-23T05:18:12;94427.06;;;24.16;55.96
31337;BME280;22846;42.654;23.314;2023-05-23T05:20:38;94430.25;;;24.15;56.09
31337;BME280;22846;42.654;23.314;2023-05-23T05:23:04;94427.41;;;24.18;56.00
31337;BME280;22846;42.654;23.314;2023-05-23T05:25:29;94426.19;;;24.19;55.99
31337;BME280;22846;42.654;23.314;2023-05-23T05:28:00;94425.75;;;24.21;57.21
31337;BME280;22846;42.654;23.314;2023-05-23T05:30:29;94425.63;;;24.24;57.86
31337;BME280;22846;42.654;23.314;2023-05-23T05:32:54;94429.13;;;24.25;57.64
31337;BME280;22846;42.654;23.314;2023-05-23T05:35:22;94420.06;;;24.28;57.82
31337;BME280;22846;42.654;23.314;2023-05-23T05:37:47;94433.16;;;24.33;57.47
31337;BME280;22846;42.654;23.314;2023-05-23T05:40:12;94433.16;;;24.33;57.74
31337;BME280;22846;42.654;23.314;2023-05-23T05:42:38;94431.97;;;24.34;57.43
31337;BME280;22846;42.654;23.314;2023-05-23T05:45:03;94438.50;;;24.36;57.48
31337;BME280;22846;42.654;23.314;2023-05-23T05:47:29;94435.31;;;24.38;56.69
31337;BME280;22846;42.654;23.314;2023-05-23T05:49:55;94434.56;;;24.37;56.76
31337;BME280;22846;42.654;23.314;2023-05-23T05:52:21;94433.03;;;24.36;57.27
31337;BME280;22846;42.654;23.314;2023-05-23T05:54:46;94445.03;;;24.39;57.48
31337;BME280;22846;42.654;23.314;2023-05-23T05:57:12;94437.22;;;24.28;48.43
31337;BME280;22846;42.654;23.314;2023-05-23T05:59:37;94442.41;;;23.89;46.32
31337;BME280;22846;42.654;23.314;2023-05-23T06:02:02;94428.97;;;23.32;45.79
31337;BME280;22846;42.654;23.314;2023-05-23T06:04:28;94443.75;;;23.19;47.96
31337;BME280;22846;42.654;23.314;2023-05-23T06:06:53;94435.00;;;23.11;49.55
31337;BME280;22846;42.654;23.314;2023-05-23T06:09:18;94445.81;;;23.15;50.48
31337;BME280;22846;42.654;23.314;2023-05-23T06:11:44;94435.91;;;23.21;51.10
31337;BME280;22846;42.654;23.314;2023-05-23T06:14:10;94435.28;;;23.29;50.65
31337;BME280;22846;42.654;23.314;2023-05-23T06:16:35;94440.84;;;23.38;50.95
31337;BME280;22846;42.654;23.314;2023-05-23T06:19:01;94441.72;;;23.48;51.75
31337;BME280;22846;42.654;23.314;2023-05-23T06:21:26;94439.53;;;23.55;52.15
31337;BME280;22846;42.654;23.314;2023-05-23T06:23:52;94445.56;;;23.63;52.06
31337;BME280;22846;42.654;23.314;2023-05-23T06:26:17;94440.28;;;23.68;52.75
31337;BME280;22846;42.654;23.314;2023-05-23T06:28:43;94433.47;;;23.76;52.68
31337;BME280;22846;42.654;23.314;2023-05-23T06:31:08;94446.13;;;23.83;53.04
31337;BME280;22846;42.654;23.314;2023-05-23T06:33:37;94445.59;;;23.88;53.10
31337;BME280;22846;42.654;23.314;2023-05-23T06:36:03;94445.03;;;23.92;53.40
31337;BME280;22846;42.654;23.314;2023-05-23T06:38:30;94449.94;;;23.97;53.44
31337;BME280;22846;42.654;23.314;2023-05-23T06:40:58;94446.66;;;24.02;53.33
31337;BME280;22846;42.654;23.314;2023-05-23T06:43:23;94446.53;;;24.06;53.92
31337;BME280;22846;42.654;23.314;2023-05-23T06:45:48;94440.22;;;24.09;53.94
31337;BME280;22846;42.654;23.314;2023-05-23T06:48:14;94446.31;;;24.13;53.70
31337;BME280;22846;42.654;23.314;2023-05-23T06:50:40;94436.91;;;24.14;54.29
31337;BME280;22846;42.654;23.314;2023-05-23T06:53:05;94437.56;;;24.18;54.11
31337;BME280;22846;42.654;23.314;2023-05-23T06:55:31;94428.06;;;24.22;54.72
31337;BME280;22846;42.654;23.314;2023-05-23T06:57:58;94431.09;;;24.24;54.49
31337;BME280;22846;42.654;23.314;2023-05-23T07:00:24;94427.50;;;24.27;54.51
31337;BME280;22846;42.654;23.314;2023-05-23T07:02:49;94427.38;;;24.31;54.50
31337;BME280;22846;42.654;23.314;2023-05-23T07:05:15;94410.66;;;24.29;54.43
31337;BME280;22846;42.654;23.314;2023-05-23T07:07:41;94410.84;;;24.34;54.33
31337;BME280;22846;42.654;23.314;2023-05-23T07:10:07;94415.91;;;24.36;54.61
31337;BME280;22846;42.654;23.314;2023-05-23T07:12:33;94421.25;;;24.39;55.03
31337;BME280;22846;42.654;23.314;2023-05-23T07:14:58;94412.59;;;24.41;54.53
31337;BME280;22846;42.654;23.314;2023-05-23T07:17:24;94409.41;;;24.42;54.67
31337;BME280;22846;42.654;23.314;2023-05-23T07:19:49;94400.91;;;24.40;55.33
31337;BME280;22846;42.654;23.314;2023-05-23T07:22:15;94398.84;;;24.44;55.03
31337;BME280;22846;42.654;23.314;2023-05-23T07:24:40;94401.13;;;24.46;54.81
31337;BME280;22846;42.654;23.314;2023-05-23T07:27:06;94401.91;;;24.46;55.47
31337;BME280;22846;42.654;23.314;2023-05-23T07:29:31;94394.91;;;24.45;55.05
31337;BME280;22846;42.654;23.314;2023-05-23T07:31:57;94395.34;;;24.44;54.90
31337;BME280;22846;42.654;23.314;2023-05-23T07:34:23;94396.88;;;24.45;55.24
31337;BME280;22846;42.654;23.314;2023-05-23T07:36:49;94396.75;;;24.48;54.83
31337;BME280;22846;42.654;23.314;2023-05-23T07:39:14;94388.25;;;24.46;54.66
31337;BME280;22846;42.654;23.314;2023-05-23T07:41:45;94387.78;;;24.48;55.14
31337;BME280;22846;42.654;23.314;2023-05-23T07:44:11;94387.25;;;24.53;55.17
31337;BME280;22846;42.654;23.314;2023-05-23T07:46:36;94392.25;;;24.54;55.83
31337;BME280;22846;42.654;23.314;2023-05-23T07:49:02;94385.59;;;24.55;55.50
31337;BME280;22846;42.654;23.314;2023-05-23T07:51:27;94387.88;;;24.57;55.14
31337;BME280;22846;42.654;23.314;2023-05-23T07:53:52;94384.72;;;24.58;55.16
31337;BME280;22846;42.654;23.314;2023-05-23T07:56:18;94382.72;;;24.59;55.87
31337;BME280;22846;42.654;23.314;2023-05-23T07:58:43;94382.28;;;24.60;55.79
31337;BME280;22846;42.654;23.314;2023-05-23T08:01:08;94380.75;;;24.59;55.89
31337;BME280;22846;42.654;23.314;2023-05-23T08:03:34;94378.78;;;24.60;55.49
31337;BME280;22846;42.654;23.314;2023-05-23T08:05:59;94382.59;;;24.62;55.58
31337;BME280;22846;42.654;23.314;2023-05-23T08:08:25;94373.94;;;24.64;55.50
31337;BME280;22846;42.654;23.314;2023-05-23T08:10:50;94373.53;;;24.65;55.69
31337;BME280;22846;42.654;23.314;2023-05-23T08:13:15;94377.78;;;24.66;55.90
31337;BME280;22846;42.654;23.314;2023-05-23T08:15:42;94369.59;;;24.66;56.09
31337;BME280;22846;42.654;23.314;2023-05-23T08:18:07;94373.06;;;24.67;55.88
31337;BME280;22846;42.654;23.314;2023-05-23T08:20:33;94376.56;;;24.67;56.05
31337;BME280;22846;42.654;23.314;2023-05-23T08:22:59;94368.34;;;24.67;55.95
31337;BME280;22846;42.654;23.314;2023-05-23T08:25:26;94378.84;;;24.69;55.99
31337;BME280;22846;42.654;23.314;2023-05-23T08:27:58;94372.63;;;24.68;55.62
31337;BME280;22846;42.654;23.314;2023-05-23T08:30:24;94374.91;;;24.70;56.15
31337;BME280;22846;42.654;23.314;2023-05-23T08:32:54;94365.94;;;24.69;56.08
31337;BME280;22846;42.654;23.314;2023-05-23T08:35:20;94379.59;;;24.69;56.13
31337;BME280;22846;42.654;23.314;2023-05-23T08:37:46;94368.34;;;24.67;55.19
31337;BME280;22846;42.654;23.314;2023-05-23T08:40:19;94375.06;;;24.66;55.67
31337;BME280;22846;42.654;23.314;2023-05-23T08:42:46;94369.88;;;24.68;55.61
31337;BME280;22846;42.654;23.314;2023-05-23T08:45:13;94350.59;;;24.63;55.50
31337;BME280;22846;42.654;23.314;2023-05-23T08:47:43;94369.47;;;24.70;56.05
31337;BME280;22846;42.654;23.314;2023-05-23T08:50:14;94364.75;;;24.70;55.85
31337;BME280;22846;42.654;23.314;2023-05-23T08:55:16;94363.09;;;24.73;55.75
31337;BME280;22846;42.654;23.314;2023-05-23T08:57:41;94363.09;;;24.73;56.16
31337;BME280;22846;42.654;23.314;2023-05-23T09:00:09;94355.66;;;24.73;55.83
31337;BME280;22846;42.654;23.314;2023-05-23T09:02:42;94358.41;;;24.73;55.91
31337;BME280;22846;42.654;23.314;2023-05-23T09:05:08;94356.00;;;24.75;56.23
31337;BME280;22846;42.654;23.314;2023-05-23T09:07:34;94352.94;;;24.73;56.09
31337;BME280;22846;42.654;23.314;2023-05-23T09:10:00;94366.91;;;24.75;56.23
31337;BME280;22846;42.654;23.314;2023-05-23T09:12:25;94360.66;;;24.75;56.46
31337;BME280;22846;42.654;23.314;2023-05-23T09:14:51;94361.44;;;24.75;56.41
31337;BME280;22846;42.654;23.314;2023-05-23T09:17:20;94364.19;;;24.75;56.13
31337;BME280;22846;42.654;23.314;2023-05-23T09:19:46;94354.75;;;24.76;56.54
31337;BME280;22846;42.654;23.314;2023-05-23T09:22:12;94355.53;;;24.77;56.53
31337;BME280;22846;42.654;23.314;2023-05-23T09:24:37;94355.53;;;24.77;56.22
31337;BME280;22846;42.654;23.314;2023-05-23T09:27:07;94357.50;;;24.76;56.39
31337;BME280;22846;42.654;23.314;2023-05-23T09:29:36;94356.28;;;24.77;56.29
31337;BME280;22846;42.654;23.314;2023-05-23T09:32:12;94343.53;;;24.74;56.62
31337;BME280;22846;42.654;23.314;2023-05-23T09:35:02;94355.06;;;24.78;56.13
31337;BME280;22846;42.654;23.314;2023-05-23T09:40:06;94357.81;;;24.78;56.65
31337;BME280;22846;42.654;23.314;2023-05-23T09:42:32;94344.94;;;24.78;56.59
31337;BME280;22846;42.654;23.314;2023-05-23T09:44:58;94344.94;;;24.78;56.33
31337;BME280;22846;42.654;23.314;2023-05-23T09:47:24;94346.44;;;24.79;56.14
31337;BME280;22846;42.654;23.314;2023-05-23T09:49:50;94340.22;;;24.79;56.17
31337;BME280;22846;42.654;23.314;2023-05-23T09:52:15;94334.00;;;24.78;56.05
31337;BME280;22846;42.654;23.314;2023-05-23T09:54:42;94334.75;;;24.79;56.13
31337;BME280;22846;42.654;23.314;2023-05-23T09:57:13;94327.75;;;24.78;56.43
31337;BME280;22846;42.654;23.314;2023-05-23T09:59:40;94326.53;;;24.79;56.00
31337;BME280;22846;42.654;23.314;2023-05-23T10:02:10;94339.47;;;24.78;55.92
31337;BME280;22846;42.654;23.314;2023-05-23T10:04:37;94330.06;;;24.79;56.21
31337;BME280;22846;42.654;23.314;2023-05-23T10:07:17;94334.75;;;24.79;55.85
31337;BME280;22846;42.654;23.314;2023-05-23T10:09:47;94327.31;;;24.79;55.79
31337;BME280;22846;42.654;23.314;2023-05-23T10:12:48;94326.09;;;24.80;56.34
31337;BME280;22846;42.654;23.314;2023-05-23T10:15:17;94324.59;;;24.79;55.81
31337;BME280;22846;42.654;23.314;2023-05-23T10:18:01;94323.19;;;24.75;56.43
31337;BME280;22846;42.654;23.314;2023-05-23T10:20:30;94319.53;;;24.78;55.83
31337;BME280;22846;42.654;23.314;2023-05-23T10:23:00;94320.63;;;24.80;56.01
31337;BME280;22846;42.654;23.314;2023-05-23T10:25:26;94319.88;;;24.80;55.84
31337;BME280;22846;42.654;23.314;2023-05-23T10:27:56;94311.81;;;24.77;56.17
31337;BME280;22846;42.654;23.314;2023-05-23T10:30:26;94312.41;;;24.80;56.02
31337;BME280;22846;42.654;23.314;2023-05-23T10:32:53;94315.94;;;24.81;56.11
31337;BME280;22846;42.654;23.314;2023-05-23T10:38:28;94311.66;;;24.80;56.23
31337;BME280;22846;42.654;23.314;2023-05-23T10:41:30;94314.72;;;24.82;56.29
31337;BME280;22846;42.654;23.314;2023-05-23T10:46:52;94306.94;;;24.80;56.11
31337;BME280;22846;42.654;23.314;2023-05-23T10:49:18;94302.25;;;24.81;56.00
31337;BME280;22846;42.654;23.314;2023-05-23T10:51:47;94306.19;;;24.80;56.04
31337;BME280;22846;42.654;23.314;2023-05-23T10:54:13;94303.78;;;24.82;55.53
31337;BME280;22846;42.654;23.314;2023-05-23T10:56:38;94294.06;;;24.81;56.36
31337;BME280;22846;42.654;23.314;2023-05-23T10:59:04;94299.22;;;24.79;55.88
31337;BME280;22846;42.654;23.314;2023-05-23T11:01:38;94294.06;;;24.81;55.72
31337;BME280;22846;42.654;23.314;2023-05-23T11:04:04;94279.94;;;24.82;55.56
31337;BME280;22846;42.654;23.314;2023-05-23T11:06:42;94287.41;;;24.82;55.87
31337;BME280;22846;42.654;23.314;2023-05-23T11:09:18;94283.44;;;24.83;55.93
31337;BME280;22846;42.654;23.314;2023-05-23T11:14:19;94292.41;;;24.83;56.05
31337;BME280;22846;42.654;23.314;2023-05-23T11:16:45;94291.66;;;24.83;55.72
31337;BME280;22846;42.654;23.314;2023-05-23T11:21:45;94280.72;;;24.83;55.75
31337;BME280;22846;42.654;23.314;2023-05-23T11:24:10;94282.25;;;24.84;55.97
31337;BME280;22846;42.654;23.314;2023-05-23T11:26:36;94282.25;;;24.84;55.42
31337;BME280;22846;42.654;23.314;2023-05-23T11:29:01;94284.97;;;24.84;55.67
31337;BME280;22846;42.654;23.314;2023-05-23T11:31:28;94283.00;;;24.84;55.75
31337;BME280;22846;42.654;23.314;2023-05-23T11:33:54;94277.06;;;24.86;55.75
31337;BME280;22846;42.654;23.314;2023-05-23T11:36:21;94277.06;;;24.86;55.87
31337;BME280;22846;42.654;23.314;2023-05-23T11:38:49;94272.81;;;24.85;55.71
31337;BME280;22846;42.654;23.314;2023-05-23T11:41:16;94265.38;;;24.85;55.75
31337;BME280;22846;42.654;23.314;2023-05-23T11:43:51;94265.38;;;24.85;55.73
31337;BME280;22846;42.654;23.314;2023-05-23T11:46:17;94270.06;;;24.85;55.41
31337;BME280;22846;42.654;23.314;2023-05-23T11:48:46;94262.66;;;24.85;55.77
31337;BME280;22846;42.654;23.314;2023-05-23T11:51:12;94259.47;;;24.87;55.65
31337;BME280;22846;42.654;23.314;2023-05-23T11:53:38;94268.13;;;24.85;55.67
31337;BME280;22846;42.654;23.314;2023-05-23T11:56:03;94272.38;;;24.86;55.23
31337;BME280;22846;42.654;23.314;2023-05-23T11:58:32;94259.47;;;24.87;55.50
31337;BME280;22846;42.654;23.314;2023-05-23T12:01:00;94254.00;;;24.87;55.53
31337;BME280;22846;42.654;23.314;2023-05-23T12:03:27;94260.25;;;24.87;55.39
31337;BME280;22846;42.654;23.314;2023-05-23T12:05:56;94250.53;;;24.86;55.59
31337;BME280;22846;42.654;23.314;2023-05-23T12:08:22;94250.84;;;24.88;55.25
31337;BME280;22846;42.654;23.314;2023-05-23T12:10:55;94255.53;;;24.88;55.57
31337;BME280;22846;42.654;23.314;2023-05-23T12:13:23;94251.59;;;24.89;55.53
31337;BME280;22846;42.654;23.314;2023-05-23T12:15:52;94239.91;;;24.88;55.35
31337;BME280;22846;42.654;23.314;2023-05-23T12:18:18;94235.31;;;24.85;55.41
31337;BME280;22846;42.654;23.314;2023-05-23T12:20:44;94242.19;;;24.90;55.20
31337;BME280;22846;42.654;23.314;2023-05-23T12:23:17;94235.94;;;24.89;55.61
31337;BME280;22846;42.654;23.314;2023-05-23T12:25:43;94228.50;;;24.90;55.56
31337;BME280;22846;42.654;23.314;2023-05-23T12:28:08;94223.03;;;24.90;55.22
31337;BME280;22846;42.654;23.314;2023-05-23T12:30:41;94227.72;;;24.89;55.60
31337;BME280;22846;42.654;23.314;2023-05-23T12:33:08;94228.50;;;24.90;55.35
31337;BME280;22846;42.654;23.314;2023-05-23T12:35:33;94221.84;;;24.91;55.25
31337;BME280;22846;42.654;23.314;2023-05-23T12:37:59;94218.47;;;24.87;55.04
31337;BME280;22846;42.654;23.314;2023-05-23T12:40:25;94215.16;;;24.92;55.45
31337;BME280;22846;42.654;23.314;2023-05-23T12:42:52;94221.84;;;24.91;55.03
31337;BME280;22846;42.654;23.314;2023-05-23T12:47:49;94203.59;;;24.88;55.33
31337;BME280;22846;42.654;23.314;2023-05-23T12:50:15;94206.97;;;24.92;55.32
31337;BME280;22846;42.654;23.314;2023-05-23T12:52:40;94198.75;;;24.92;55.20
31337;BME280;22846;42.654;23.314;2023-05-23T12:55:07;94200.25;;;24.93;55.52
31337;BME280;22846;42.654;23.314;2023-05-23T12:57:34;94196.78;;;24.92;55.45
31337;BME280;22846;42.654;23.314;2023-05-23T13:00:00;94203.00;;;24.93;55.30
31337;BME280;22846;42.654;23.314;2023-05-23T13:02:26;94191.31;;;24.92;55.04
31337;BME280;22846;42.654;23.314;2023-05-23T13:04:52;94192.06;;;24.93;55.46
31337;BME280;22846;42.654;23.314;2023-05-23T13:07:17;94199.06;;;24.94;55.09
31337;BME280;22846;42.654;23.314;2023-05-23T13:09:43;94197.09;;;24.94;55.18
31337;BME280;22846;42.654;23.314;2023-05-23T13:12:08;94191.63;;;24.94;55.52